Time;durP1;ratioP1;P1;durP2;ratioP2;P2;SDS_P1;SDS_P2;PMS_P1;PMS_P2;Temp;Humidity;BMP_temperature;BMP_pressure;BME280_temperature;BME280_humidity;BME280_pressure;Samples;Min_cycle;Max_cycle;Signal;HPM_P1;HPM_P2
2021/09/05 00:00:26;;;;;;;6.93;4.70;;;17.50;93.70;;;;;;5078628;28;20031;-88
2021/09/05 00:02:52;;;;;;;9.27;5.00;;;17.40;93.80;;;;;;5089288;28;20492;-86
2021/09/05 00:05:18;;;;;;;8.13;4.40;;;17.40;93.80;;;;;;5086166;28;20028;-86
2021/09/05 00:07:43;;;;;;;8.48;4.95;;;17.40;93.90;;;;;;5099959;28;20467;-87
2021/09/05 00:10:10;;;;;;;9.82;5.35;;;17.40;93.90;;;;;;5092441;28;20387;-85
2021/09/05 00:12:36;;;;;;;10.25;4.78;;;17.40;93.90;;;;;;5075150;28;20047;-85
2021/09/05 00:15:04;;;;;;;7.32;4.88;;;17.40;94.00;;;;;;5084088;28;20027;-88
2021/09/05 00:17:30;;;;;;;7.25;4.38;;;17.40;94.10;;;;;;5080096;28;20045;-88
2021/09/05 00:19:55;;;;;;;9.45;4.97;;;17.40;94.00;;;;;;5089003;28;20069;-89
2021/09/05 00:22:21;;;;;;;8.43;5.13;;;17.40;94.10;;;;;;5076099;28;20085;-89
2021/09/05 00:24:46;;;;;;;10.52;4.80;;;17.40;94.30;;;;;;5092331;28;20060;-88
2021/09/05 00:27:12;;;;;;;6.65;4.50;;;17.40;94.30;;;;;;5093568;28;20044;-88
2021/09/05 00:29:38;;;;;;;8.95;5.10;;;17.30;94.40;;;;;;5092156;28;20020;-88
2021/09/05 00:32:04;;;;;;;8.73;5.05;;;17.30;94.40;;;;;;5076684;28;20562;-87
2021/09/05 00:34:29;;;;;;;10.07;5.20;;;17.30;94.50;;;;;;5089213;28;20081;-85
2021/09/05 00:36:55;;;;;;;8.85;5.13;;;17.30;94.50;;;;;;5080299;28;20039;-85
2021/09/05 00:39:20;;;;;;;9.15;4.80;;;17.30;94.70;;;;;;5081355;28;20035;-85
2021/09/05 00:41:47;;;;;;;10.88;5.30;;;17.30;94.60;;;;;;5086082;28;20461;-85
2021/09/05 00:44:13;;;;;;;7.30;4.88;;;17.20;94.50;;;;;;5075551;28;20035;-86
2021/09/05 00:46:40;;;;;;;10.32;5.82;;;17.20;94.70;;;;;;5087384;28;20021;-86
2021/09/05 00:49:07;;;;;;;8.40;5.57;;;17.20;94.60;;;;;;5080916;28;20380;-86
2021/09/05 00:51:35;;;;;;;9.98;5.38;;;17.10;94.70;;;;;;5079364;28;20035;-87
2021/09/05 00:54:02;;;;;;;8.02;4.95;;;17.10;95.10;;;;;;5088073;28;20047;-87
2021/09/05 00:56:32;;;;;;;8.02;4.70;;;17.10;94.90;;;;;;5092186;28;20074;-81
2021/09/05 00:59:02;;;;;;;7.68;5.25;;;17.00;95.10;;;;;;5088239;28;20091;-82
2021/09/05 01:01:28;;;;;;;7.18;5.40;;;17.00;95.10;;;;;;5086741;28;20024;-89
2021/09/05 01:03:54;;;;;;;8.88;5.18;;;17.00;95.10;;;;;;5080744;28;20037;-88
2021/09/05 01:06:20;;;;;;;7.43;5.20;;;17.00;95.10;;;;;;5092301;28;20035;-90
2021/09/05 01:08:48;;;;;;;7.28;5.55;;;17.00;95.10;;;;;;5082840;28;20445;-89
2021/09/05 01:11:16;;;;;;;8.02;5.50;;;17.00;95.00;;;;;;5086536;28;20028;-89
2021/09/05 01:13:43;;;;;;;7.38;4.97;;;17.00;95.10;;;;;;5089540;28;20024;-87
2021/09/05 01:16:36;;;;;;;8.40;5.40;;;17.10;95.10;;;;;;5080693;28;20178;-89
2021/09/05 01:19:09;;;;;;;7.82;4.75;;;17.10;95.10;;;;;;5071740;28;20097;-89
2021/09/05 01:21:36;;;;;;;10.15;5.43;;;17.10;95.00;;;;;;5071064;28;20028;-84
2021/09/05 01:24:03;;;;;;;10.32;5.60;;;17.10;94.90;;;;;;5078368;28;20461;-83
2021/09/05 01:26:31;;;;;;;15.27;5.40;;;17.00;94.80;;;;;;5060855;28;20024;-83
2021/09/05 01:28:57;;;;;;;7.30;4.82;;;17.00;95.00;;;;;;5070736;28;20474;-83
2021/09/05 01:31:24;;;;;;;8.13;4.82;;;17.00;94.70;;;;;;5068721;28;20028;-87
2021/09/05 01:33:49;;;;;;;8.05;4.70;;;16.90;94.70;;;;;;5063742;28;20461;-89
2021/09/05 01:36:18;;;;;;;10.00;5.15;;;16.90;94.70;;;;;;5059796;28;20037;-88
2021/09/05 01:38:44;;;;;;;6.30;4.57;;;16.90;94.60;;;;;;5073383;28;20020;-90
2021/09/05 01:41:10;;;;;;;7.80;5.00;;;16.90;94.60;;;;;;5085425;28;20028;-90
2021/09/05 01:43:36;;;;;;;6.35;4.68;;;16.80;94.70;;;;;;5065549;28;20028;-90
2021/09/05 01:46:03;;;;;;;6.47;4.60;;;16.80;94.80;;;;;;5075199;28;20089;-91
2021/09/05 01:48:28;;;;;;;7.20;4.55;;;16.70;94.90;;;;;;5061558;28;20016;-91
2021/09/05 01:50:54;;;;;;;6.68;4.35;;;16.70;95.00;;;;;;5077986;28;20069;-85
2021/09/05 01:53:20;;;;;;;9.00;5.13;;;16.70;95.00;;;;;;5077682;28;20024;-88
2021/09/05 01:55:45;;;;;;;8.27;5.00;;;16.70;95.20;;;;;;5082255;28;20125;-88
2021/09/05 01:58:11;;;;;;;9.93;4.70;;;16.70;94.90;;;;;;5075097;28;20032;-89
2021/09/05 02:00:37;;;;;;;8.55;5.25;;;16.80;94.80;;;;;;5062386;28;20545;-88
2021/09/05 02:03:03;;;;;;;6.35;4.50;;;16.70;94.90;;;;;;5069819;28;20048;-88
2021/09/05 02:05:29;;;;;;;7.57;4.38;;;16.70;94.90;;;;;;5054685;28;20040;-89
2021/09/05 02:07:54;;;;;;;7.30;4.85;;;16.70;94.90;;;;;;5056792;28;20036;-90
2021/09/05 02:10:20;;;;;;;8.07;4.80;;;16.70;94.80;;;;;;5074236;28;20029;-90
2021/09/05 02:12:45;;;;;;;8.10;4.78;;;16.70;94.90;;;;;;5063881;28;20052;-91
2021/09/05 02:15:11;;;;;;;5.32;4.28;;;16.60;94.80;;;;;;5068523;28;20028;-90
2021/09/05 02:17:37;;;;;;;6.97;4.25;;;16.70;94.90;;;;;;5077361;28;20093;-87
2021/09/05 02:20:03;;;;;;;9.32;4.90;;;16.60;94.80;;;;;;5078072;28;20385;-87
2021/09/05 02:22:28;;;;;;;9.63;4.63;;;16.60;94.80;;;;;;5077007;28;20473;-88
2021/09/05 02:24:54;;;;;;;6.88;5.03;;;16.60;94.80;;;;;;5088738;28;20067;-88
2021/09/05 02:27:19;;;;;;;6.80;4.68;;;16.60;95.10;;;;;;5084366;28;20092;-88
2021/09/05 02:29:45;;;;;;;7.57;4.30;;;16.60;94.80;;;;;;5081045;28;20476;-87
2021/09/05 02:32:11;;;;;;;5.97;4.03;;;16.60;94.80;;;;;;5090520;28;20094;-87
2021/09/05 02:34:36;;;;;;;7.47;4.75;;;16.50;95.00;;;;;;5073461;28;20029;-88
2021/09/05 02:37:02;;;;;;;7.50;4.57;;;16.50;95.10;;;;;;5082114;28;20020;-88
2021/09/05 02:39:28;;;;;;;7.43;4.57;;;16.50;95.00;;;;;;5094772;28;20070;-89
2021/09/05 02:41:53;;;;;;;10.48;4.57;;;16.50;95.00;;;;;;5078751;28;20103;-85
2021/09/05 02:44:19;;;;;;;6.15;4.28;;;16.50;95.00;;;;;;5090788;28;20032;-86
2021/09/05 02:46:45;;;;;;;7.93;4.80;;;16.40;95.10;;;;;;5079616;28;20025;-89
2021/09/05 02:49:11;;;;;;;6.90;4.32;;;16.40;95.20;;;;;;5085361;28;20029;-90
2021/09/05 02:51:39;;;;;;;6.53;4.80;;;16.30;95.20;;;;;;5087656;28;20090;-89
2021/09/05 02:54:05;;;;;;;6.10;4.28;;;16.30;95.30;;;;;;5077899;28;20060;-87
2021/09/05 02:56:30;;;;;;;6.53;4.10;;;16.30;95.20;;;;;;5089476;28;20056;-89
2021/09/05 02:58:56;;;;;;;7.43;4.40;;;16.30;95.30;;;;;;5082060;28;20031;-89
2021/09/05 03:01:23;;;;;;;6.95;4.55;;;16.30;95.20;;;;;;5083485;28;20035;-90
2021/09/05 03:03:48;;;;;;;5.75;4.50;;;16.30;95.20;;;;;;5087413;28;20020;-89
2021/09/05 03:06:14;;;;;;;7.97;4.65;;;16.30;95.20;;;;;;5085312;28;20495;-89
2021/09/05 03:08:40;;;;;;;7.43;4.47;;;16.30;95.20;;;;;;5081427;28;20029;-90
2021/09/05 03:11:05;;;;;;;7.97;4.38;;;16.30;95.20;;;;;;5086851;28;20028;-90
2021/09/05 03:13:31;;;;;;;9.10;4.82;;;16.30;95.20;;;;;;5086011;28;20435;-89
2021/09/05 03:15:57;;;;;;;6.82;4.60;;;16.30;95.20;;;;;;5079462;28;20041;-90
2021/09/05 03:18:22;;;;;;;6.60;4.53;;;16.30;95.20;;;;;;5075750;28;20049;-90
2021/09/05 03:20:48;;;;;;;7.40;4.93;;;16.30;95.30;;;;;;5089024;28;20020;-90
2021/09/05 03:23:13;;;;;;;6.63;4.32;;;16.30;95.20;;;;;;5084612;28;20362;-90
2021/09/05 03:25:39;;;;;;;5.78;4.28;;;16.30;95.20;;;;;;5080268;28;20048;-90
2021/09/05 03:28:05;;;;;;;6.65;4.80;;;16.30;95.20;;;;;;5090500;28;20107;-89
2021/09/05 03:30:30;;;;;;;8.02;5.25;;;16.30;95.20;;;;;;5077619;28;20031;-90
2021/09/05 03:32:56;;;;;;;7.00;4.47;;;16.30;95.30;;;;;;5086796;28;20017;-90
2021/09/05 03:35:21;;;;;;;6.68;4.45;;;16.30;95.30;;;;;;5073439;28;20025;-90
2021/09/05 03:37:47;;;;;;;6.43;4.60;;;16.20;95.30;;;;;;5088251;28;20020;-89
2021/09/05 03:40:13;;;;;;;7.40;4.93;;;16.20;95.30;;;;;;5093752;28;20024;-90
2021/09/05 03:42:39;;;;;;;8.60;4.95;;;16.20;95.30;;;;;;5078194;28;20042;-90
2021/09/05 03:45:05;;;;;;;7.50;5.07;;;16.30;95.10;;;;;;5085338;28;20532;-90
2021/09/05 03:47:31;;;;;;;7.07;4.85;;;16.20;95.20;;;;;;5073226;28;20021;-90
2021/09/05 03:49:56;;;;;;;8.52;4.82;;;16.20;95.30;;;;;;5089197;28;20362;-90
2021/09/05 03:52:22;;;;;;;8.30;5.25;;;16.20;95.40;;;;;;5077465;28;20028;-89
2021/09/05 03:54:47;;;;;;;7.22;4.85;;;16.20;95.30;;;;;;5087274;28;20036;-90
2021/09/05 03:57:13;;;;;;;6.38;4.55;;;16.20;95.30;;;;;;5083093;28;20024;-90
2021/09/05 03:59:39;;;;;;;7.47;5.03;;;16.20;95.30;;;;;;5079432;28;20480;-90
2021/09/05 04:02:04;;;;;;;6.45;4.72;;;16.20;95.30;;;;;;5089742;28;20028;-89
2021/09/05 04:04:30;;;;;;;10.70;4.95;;;16.30;95.30;;;;;;5072707;28;20035;-89
2021/09/05 04:07:01;;;;;;;7.35;4.75;;;16.30;95.30;;;;;;5080036;28;20016;-90
2021/09/05 04:12:16;;;;;;;8.18;4.72;;;16.30;95.00;;;;;;5077767;28;19975;-88
2021/09/05 04:14:42;;;;;;;6.20;4.38;;;16.30;95.00;;;;;;5089490;28;20024;-90
2021/09/05 04:17:08;;;;;;;11.13;5.28;;;16.30;95.00;;;;;;5081735;28;20046;-90
2021/09/05 04:19:34;;;;;;;7.20;4.78;;;16.30;95.00;;;;;;5080557;28;20029;-90
2021/09/05 04:22:02;;;;;;;8.23;4.60;;;16.30;95.10;;;;;;5089551;28;20102;-90
2021/09/05 04:24:27;;;;;;;6.13;4.32;;;16.30;95.30;;;;;;5075774;28;20031;-90
2021/09/05 04:26:53;;;;;;;5.85;4.22;;;16.30;95.00;;;;;;5086316;28;20088;-89
2021/09/05 04:29:19;;;;;;;8.27;4.50;;;16.30;95.00;;;;;;5084054;28;20454;-90
2021/09/05 04:31:44;;;;;;;8.50;4.38;;;16.20;95.00;;;;;;5081506;28;20109;-90
2021/09/05 04:34:10;;;;;;;9.82;4.50;;;16.20;95.00;;;;;;5095513;28;20103;-89
2021/09/05 04:36:35;;;;;;;7.32;4.85;;;16.20;95.20;;;;;;5092274;28;20028;-90
2021/09/05 04:39:02;;;;;;;7.60;4.50;;;16.20;95.10;;;;;;5078205;28;20522;-90
2021/09/05 04:41:27;;;;;;;8.10;4.28;;;16.20;95.10;;;;;;5089292;28;20024;-89
2021/09/05 04:43:53;;;;;;;6.72;4.65;;;16.20;95.10;;;;;;5082887;28;20054;-90
2021/09/05 04:46:19;;;;;;;8.23;4.70;;;16.10;95.20;;;;;;5093023;28;20480;-89
2021/09/05 04:48:44;;;;;;;9.10;4.72;;;16.20;95.20;;;;;;5076543;28;20116;-90
2021/09/05 04:51:10;;;;;;;7.65;4.97;;;16.20;95.30;;;;;;5085880;28;20077;-90
2021/09/05 04:53:35;;;;;;;6.45;4.20;;;16.20;95.30;;;;;;5083739;28;20457;-90
2021/09/05 04:56:01;;;;;;;7.80;4.50;;;16.20;95.30;;;;;;5093297;28;20130;-90
2021/09/05 04:58:26;;;;;;;10.95;4.93;;;16.20;95.30;;;;;;5079447;28;20024;-90
2021/09/05 05:00:52;;;;;;;6.13;4.47;;;16.20;95.30;;;;;;5090286;28;20020;-90
2021/09/05 05:03:18;;;;;;;8.68;4.90;;;16.20;95.30;;;;;;5086624;28;20020;-90
2021/09/05 05:05:43;;;;;;;6.90;4.95;;;16.20;95.20;;;;;;5093363;28;20033;-90
2021/09/05 05:08:09;;;;;;;7.32;4.32;;;16.20;95.30;;;;;;5079812;28;20027;-90
2021/09/05 05:10:35;;;;;;;6.68;4.38;;;16.20;95.30;;;;;;5092823;28;20256;-90
2021/09/05 05:13:01;;;;;;;7.65;5.07;;;16.10;95.30;;;;;;5084453;28;20023;-90
2021/09/05 05:15:27;;;;;;;8.48;4.75;;;16.20;95.60;;;;;;5084422;28;20478;-90
2021/09/05 05:17:54;;;;;;;10.05;4.88;;;16.10;95.30;;;;;;5084899;28;20049;-91
2021/09/05 05:20:19;;;;;;;7.45;4.43;;;16.10;95.40;;;;;;5089373;28;20028;-90
2021/09/05 05:22:46;;;;;;;9.40;4.53;;;16.10;95.60;;;;;;5082556;28;20074;-90
2021/09/05 05:25:12;;;;;;;8.00;4.80;;;16.10;95.70;;;;;;5086662;28;20060;-90
2021/09/05 05:27:38;;;;;;;7.90;4.43;;;16.20;95.80;;;;;;5081715;28;20033;-89
2021/09/05 05:30:05;;;;;;;6.53;4.55;;;16.20;95.60;;;;;;5091635;28;20488;-88
2021/09/05 05:32:30;;;;;;;6.70;4.30;;;16.20;95.50;;;;;;5078106;28;20050;-89
2021/09/05 05:34:56;;;;;;;7.50;4.53;;;16.20;95.50;;;;;;5094934;28;20488;-89
2021/09/05 05:37:22;;;;;;;6.53;4.18;;;16.20;95.70;;;;;;5083410;28;20176;-88
2021/09/05 05:39:48;;;;;;;7.43;4.50;;;16.20;95.70;;;;;;5074929;28;20028;-89
2021/09/05 05:42:13;;;;;;;5.03;4.20;;;16.20;95.50;;;;;;5075873;28;20462;-89
2021/09/05 05:44:40;;;;;;;8.25;5.07;;;16.20;95.40;;;;;;5088683;28;20024;-90
2021/09/05 05:47:06;;;;;;;6.60;4.68;;;16.30;95.40;;;;;;5083336;28;20031;-89
2021/09/05 05:49:34;;;;;;;7.13;5.22;;;16.30;95.30;;;;;;5083242;28;20060;-90
2021/09/05 05:52:00;;;;;;;8.25;4.97;;;16.30;95.20;;;;;;5090690;28;20035;-90
2021/09/05 05:54:25;;;;;;;7.13;4.70;;;16.40;95.20;;;;;;5077233;28;20028;-90
2021/09/05 05:56:51;;;;;;;9.43;4.60;;;16.50;95.20;;;;;;5087777;28;20028;-89
2021/09/05 05:59:16;;;;;;;9.73;5.22;;;16.50;95.20;;;;;;5074137;28;20017;-89
2021/09/05 06:01:42;;;;;;;7.57;4.45;;;16.50;95.20;;;;;;5088060;28;20069;-88
2021/09/05 06:04:09;;;;;;;8.00;4.97;;;16.50;95.20;;;;;;5077464;28;20575;-87
2021/09/05 06:06:35;;;;;;;8.25;5.25;;;16.50;95.10;;;;;;5089705;28;20032;-90
2021/09/05 06:09:01;;;;;;;7.72;4.47;;;16.60;95.10;;;;;;5086588;28;20021;-90
2021/09/05 06:11:27;;;;;;;7.47;4.88;;;16.50;95.20;;;;;;5085694;28;20043;-90
2021/09/05 06:13:53;;;;;;;7.75;4.72;;;16.60;95.30;;;;;;5078224;28;20104;-90
2021/09/05 06:16:19;;;;;;;8.25;4.85;;;16.50;95.20;;;;;;5090974;28;20471;-88
2021/09/05 06:18:46;;;;;;;10.13;5.15;;;16.50;95.30;;;;;;5073976;28;20041;-88
2021/09/05 06:21:11;;;;;;;6.57;4.63;;;16.50;95.30;;;;;;5084121;28;20020;-88
2021/09/05 06:23:37;;;;;;;8.27;5.18;;;16.50;95.30;;;;;;5081828;28;20082;-88
2021/09/05 06:26:03;;;;;;;8.23;4.95;;;16.60;95.40;;;;;;5090515;28;20035;-89
2021/09/05 06:28:28;;;;;;;7.65;5.03;;;16.60;95.30;;;;;;5072957;28;20456;-89
2021/09/05 06:30:54;;;;;;;6.95;4.88;;;16.60;95.30;;;;;;5081147;28;20024;-89
2021/09/05 06:33:20;;;;;;;8.68;5.38;;;16.60;95.30;;;;;;5083065;28;20358;-89
2021/09/05 06:35:45;;;;;;;9.60;5.00;;;16.60;95.30;;;;;;5074595;28;20036;-88
2021/09/05 06:38:11;;;;;;;7.20;4.60;;;16.60;95.30;;;;;;5090589;28;20092;-89
2021/09/05 06:40:36;;;;;;;9.02;5.03;;;16.60;95.20;;;;;;5077738;28;20044;-90
2021/09/05 06:43:02;;;;;;;8.77;5.68;;;16.60;95.30;;;;;;5086116;28;20472;-90
2021/09/05 06:45:28;;;;;;;10.07;5.43;;;16.60;95.20;;;;;;5084644;28;20151;-89
2021/09/05 06:47:54;;;;;;;9.38;5.28;;;16.70;95.30;;;;;;5078676;28;20116;-89
2021/09/05 06:50:19;;;;;;;8.38;5.38;;;16.70;95.20;;;;;;5075755;28;20020;-88
2021/09/05 06:52:45;;;;;;;7.78;5.15;;;16.70;95.20;;;;;;5088133;28;20116;-89
2021/09/05 06:55:10;;;;;;;9.73;5.45;;;16.70;95.10;;;;;;5082263;28;20043;-88
2021/09/05 06:57:36;;;;;;;9.02;5.35;;;16.80;95.10;;;;;;5087634;28;20035;-89
2021/09/05 07:00:03;;;;;;;8.77;6.20;;;16.80;95.10;;;;;;5093519;28;20024;-90
2021/09/05 07:02:29;;;;;;;9.40;4.88;;;16.80;95.00;;;;;;5089478;28;20032;-88
2021/09/05 07:04:54;;;;;;;8.13;5.03;;;16.90;95.00;;;;;;5074165;28;20078;-88
2021/09/05 07:07:20;;;;;;;5.97;4.55;;;16.90;95.10;;;;;;5084550;28;20036;-89
2021/09/05 07:09:46;;;;;;;8.18;4.90;;;17.00;94.90;;;;;;5079204;28;20032;-89
2021/09/05 07:12:11;;;;;;;7.85;5.03;;;17.10;94.70;;;;;;5089719;28;20024;-90
2021/09/05 07:14:37;;;;;;;6.70;4.90;;;17.00;94.80;;;;;;5077344;28;20513;-90
2021/09/05 07:17:02;;;;;;;8.82;5.40;;;17.00;94.70;;;;;;5087354;28;20036;-90
2021/09/05 07:19:28;;;;;;;7.28;4.75;;;17.00;94.80;;;;;;5081006;28;20025;-90
2021/09/05 07:21:54;;;;;;;9.02;5.28;;;17.10;94.80;;;;;;5089256;28;20024;-90
2021/09/05 07:24:19;;;;;;;8.00;4.63;;;17.10;94.80;;;;;;5075829;28;20060;-90
2021/09/05 07:26:45;;;;;;;5.68;4.63;;;17.10;94.70;;;;;;5087403;28;20028;-91
2021/09/05 07:29:11;;;;;;;7.93;4.93;;;17.20;94.80;;;;;;5081810;28;20453;-90
2021/09/05 07:31:37;;;;;;;7.78;4.93;;;17.20;94.60;;;;;;5083626;28;20115;-90
2021/09/05 07:34:02;;;;;;;6.63;4.22;;;17.20;94.70;;;;;;5083044;28;20050;-90
2021/09/05 07:36:28;;;;;;;7.53;4.68;;;17.20;94.70;;;;;;5088462;28;20044;-87
2021/09/05 07:38:53;;;;;;;7.75;4.75;;;17.30;94.60;;;;;;5072628;28;20047;-87
2021/09/05 07:41:19;;;;;;;12.02;5.60;;;17.30;94.60;;;;;;5083785;28;20028;-85
2021/09/05 07:43:45;;;;;;;11.85;6.43;;;17.40;94.50;;;;;;5078784;28;20059;-88
2021/09/05 07:46:10;;;;;;;7.68;4.97;;;17.50;94.50;;;;;;5088821;28;20039;-89
2021/09/05 07:48:36;;;;;;;6.38;4.60;;;17.50;94.30;;;;;;5072326;28;20027;-91
2021/09/05 07:51:02;;;;;;;6.60;4.63;;;17.60;94.20;;;;;;5080846;28;20068;-90
2021/09/05 07:53:27;;;;;;;7.22;4.57;;;17.60;93.90;;;;;;5081623;28;20084;-91
2021/09/05 07:55:53;;;;;;;9.63;5.18;;;17.70;94.00;;;;;;5087318;28;20119;-90
2021/09/05 07:58:21;;;;;;;7.10;4.75;;;17.70;93.80;;;;;;5073264;28;20450;-89
2021/09/05 08:00:46;;;;;;;8.40;4.72;;;17.80;93.70;;;;;;5072602;28;20037;-90
2021/09/05 08:03:12;;;;;;;8.68;4.95;;;17.80;93.70;;;;;;5081935;28;20024;-90
2021/09/05 08:05:37;;;;;;;8.02;4.65;;;17.90;93.70;;;;;;5079175;28;20437;-91
2021/09/05 08:08:03;;;;;;;7.20;4.97;;;18.00;93.60;;;;;;5092798;28;20069;-91
2021/09/05 08:10:29;;;;;;;6.20;4.80;;;18.20;93.60;;;;;;5079597;28;20487;-92
2021/09/05 08:12:55;;;;;;;6.97;5.10;;;18.30;93.00;;;;;;5096611;28;20081;-91
2021/09/05 08:15:20;;;;;;;7.78;4.65;;;18.40;92.80;;;;;;5086438;28;20037;-89
2021/09/05 08:17:47;;;;;;;6.97;4.50;;;18.40;92.90;;;;;;5103706;28;20442;-88
2021/09/05 08:20:13;;;;;;;8.40;5.05;;;18.40;92.90;;;;;;5101073;28;20027;-89
2021/09/05 08:22:39;;;;;;;10.65;4.88;;;18.30;93.00;;;;;;5112789;28;20020;-89
2021/09/05 08:25:05;;;;;;;6.63;4.18;;;18.20;93.40;;;;;;5087634;28;20039;-89
2021/09/05 08:27:31;;;;;;;6.15;4.43;;;18.20;93.50;;;;;;5091321;28;20074;-91
2021/09/05 08:29:57;;;;;;;6.40;4.53;;;18.20;93.90;;;;;;5087090;28;20020;-91
2021/09/05 08:32:23;;;;;;;6.53;4.85;;;18.20;93.50;;;;;;5117809;28;20452;-90
2021/09/05 08:34:49;;;;;;;7.97;4.75;;;18.20;93.50;;;;;;5103766;28;20031;-90
2021/09/05 08:37:15;;;;;;;7.40;5.13;;;18.20;93.50;;;;;;5100967;28;20027;-89
2021/09/05 08:39:41;;;;;;;11.13;5.70;;;18.20;93.40;;;;;;5104355;28;20023;-91
2021/09/05 08:42:07;;;;;;;10.05;5.47;;;18.30;93.80;;;;;;5086683;28;20036;-90
2021/09/05 08:44:32;;;;;;;8.20;5.13;;;18.30;93.50;;;;;;5095011;28;20028;-91
2021/09/05 08:46:59;;;;;;;7.88;4.70;;;18.30;93.00;;;;;;5101465;28;20024;-90
2021/09/05 08:49:27;;;;;;;6.43;4.72;;;18.40;92.90;;;;;;5108343;28;20027;-89
2021/09/05 08:51:54;;;;;;;7.78;4.53;;;18.40;92.90;;;;;;5093879;28;20110;-89
2021/09/05 08:54:20;;;;;;;8.13;4.72;;;18.30;93.00;;;;;;5096285;28;20111;-89
2021/09/05 08:56:51;;;;;;;7.90;5.18;;;18.30;92.90;;;;;;5087853;28;20139;-90
2021/09/05 08:59:18;;;;;;;6.65;4.75;;;18.40;92.80;;;;;;5088399;28;20084;-88
2021/09/05 09:01:55;;;;;;;7.38;4.63;;;18.40;92.70;;;;;;5089906;28;20414;-90
2021/09/05 09:04:22;;;;;;;6.82;4.28;;;18.40;92.70;;;;;;5086543;28;20032;-87
2021/09/05 09:06:48;;;;;;;6.25;4.10;;;18.50;92.70;;;;;;5109059;28;20023;-86
2021/09/05 09:09:14;;;;;;;7.50;4.50;;;18.50;92.70;;;;;;5090550;28;20064;-86
2021/09/05 09:11:57;;;;;;;7.53;4.70;;;18.60;92.80;;;;;;5087809;28;20055;-88
2021/09/05 09:14:42;;;;;;;8.43;5.18;;;18.60;92.50;;;;;;5083709;28;20028;-90
2021/09/05 09:17:09;;;;;;;6.15;4.40;;;18.60;92.40;;;;;;5090229;28;20046;-88
2021/09/05 09:19:35;;;;;;;7.10;4.47;;;18.70;92.70;;;;;;5080561;28;20024;-83
2021/09/05 09:22:04;;;;;;;8.55;5.00;;;18.70;92.70;;;;;;5094872;28;20031;-83
2021/09/05 09:24:39;;;;;;;7.35;4.60;;;18.80;93.20;;;;;;5081267;28;20563;-83
2021/09/05 09:27:06;;;;;;;7.38;4.38;;;18.80;93.00;;;;;;5108206;28;20028;-85
2021/09/05 09:29:35;;;;;;;8.57;5.28;;;18.80;92.90;;;;;;5090833;28;20024;-84
2021/09/05 09:32:15;;;;;;;8.80;4.88;;;18.80;93.00;;;;;;5082419;28;20024;-84
2021/09/05 09:34:48;;;;;;;7.85;4.88;;;19.00;93.10;;;;;;5082719;28;20031;-84
2021/09/05 09:37:18;;;;;;;9.63;5.18;;;19.10;93.00;;;;;;5088892;28;20038;-83
2021/09/05 09:39:47;;;;;;;6.65;4.47;;;19.10;93.00;;;;;;5078367;28;20035;-84
2021/09/05 09:42:35;;;;;;;9.63;4.85;;;19.10;92.90;;;;;;5095051;28;20122;-87
2021/09/05 09:45:03;;;;;;;9.80;4.97;;;19.20;93.20;;;;;;5086456;28;20035;-84
2021/09/05 09:47:50;;;;;;;7.57;4.65;;;19.20;92.90;;;;;;5104254;28;20099;-84
2021/09/05 09:50:18;;;;;;;6.22;4.45;;;19.40;92.80;;;;;;5094345;28;20488;-84
2021/09/05 09:52:44;;;;;;;6.55;4.18;;;19.50;92.30;;;;;;5083490;28;20019;-84
2021/09/05 09:55:10;;;;;;;6.50;4.70;;;19.40;92.20;;;;;;5088598;28;20043;-84
2021/09/05 09:57:39;;;;;;;8.85;4.70;;;19.60;92.10;;;;;;5089775;28;20122;-84
2021/09/05 10:00:06;;;;;;;7.90;4.60;;;19.60;92.00;;;;;;5080956;28;20028;-86
2021/09/05 10:02:37;;;;;;;5.97;3.95;;;19.60;91.90;;;;;;5111551;28;20461;-83
2021/09/05 10:05:04;;;;;;;7.32;4.75;;;19.80;92.10;;;;;;5077535;28;20028;-82
2021/09/05 10:07:31;;;;;;;7.57;4.40;;;19.80;92.20;;;;;;5076794;28;20077;-83
2021/09/05 10:10:01;;;;;;;8.20;4.50;;;19.80;92.00;;;;;;5095720;28;20103;-82
2021/09/05 10:12:29;;;;;;;10.00;4.68;;;20.00;91.80;;;;;;5097299;28;20517;-83
2021/09/05 10:14:57;;;;;;;5.75;4.00;;;20.00;91.40;;;;;;5090138;28;20036;-82
2021/09/05 10:17:24;;;;;;;5.72;4.45;;;20.10;91.20;;;;;;5076651;28;20052;-87
2021/09/05 10:19:51;;;;;;;6.53;4.43;;;20.10;91.10;;;;;;5080064;28;20032;-85
2021/09/05 10:22:23;;;;;;;8.88;4.47;;;20.10;91.00;;;;;;5097229;28;20020;-84
2021/09/05 10:24:52;;;;;;;7.55;3.75;;;20.20;90.90;;;;;;5115461;28;20028;-84
2021/09/05 10:27:31;;;;;;;5.90;4.53;;;20.20;90.90;;;;;;5086520;28;20030;-84
2021/09/05 10:30:16;;;;;;;8.75;4.07;;;20.30;90.90;;;;;;5092125;28;20110;-84
2021/09/05 10:32:45;;;;;;;6.30;4.30;;;20.40;90.60;;;;;;5082482;28;20096;-80
2021/09/05 10:35:26;;;;;;;6.07;4.03;;;20.40;90.60;;;;;;5087373;28;20079;-82
2021/09/05 10:38:19;;;;;;;7.45;4.13;;;20.50;90.30;;;;;;5091924;28;20153;-82
2021/09/05 10:40:52;;;;;;;8.02;4.35;;;20.50;90.30;;;;;;5076916;28;20491;-84
2021/09/05 10:43:19;;;;;;;8.15;4.18;;;20.60;90.50;;;;;;5076626;28;20024;-84
2021/09/05 10:45:52;;;;;;;6.05;4.00;;;20.60;90.10;;;;;;5095081;28;20035;-82
2021/09/05 10:48:37;;;;;;;4.97;3.70;;;20.70;89.80;;;;;;5076348;28;20484;-85
2021/09/05 10:51:12;;;;;;;5.80;3.63;;;20.80;89.90;;;;;;5076712;28;20073;-85
2021/09/05 10:53:57;;;;;;;6.57;3.95;;;20.80;90.50;;;;;;5094564;28;20235;-87
2021/09/05 10:56:28;;;;;;;6.40;4.13;;;20.90;89.90;;;;;;5075932;28;20040;-88
2021/09/05 10:58:54;;;;;;;7.65;3.90;;;21.00;89.30;;;;;;5077330;28;20028;-87
2021/09/05 11:01:20;;;;;;;6.00;4.07;;;21.00;89.00;;;;;;5085974;28;20468;-85
2021/09/05 11:04:11;;;;;;;7.18;4.32;;;21.00;89.60;;;;;;5097084;28;20381;-85
2021/09/05 11:06:37;;;;;;;6.93;4.32;;;21.10;89.40;;;;;;5076054;28;20028;-82
2021/09/05 11:09:24;;;;;;;6.05;4.32;;;21.20;88.70;;;;;;5076184;28;20024;-84
2021/09/05 11:14:37;;;;;;;6.05;4.60;;;21.40;87.00;;;;;;5093977;28;20050;-83
2021/09/05 11:17:09;;;;;;;6.10;4.45;;;21.40;87.70;;;;;;5076354;28;20048;-83
2021/09/05 11:19:39;;;;;;;6.03;4.35;;;21.50;90.10;;;;;;5079763;28;20028;-85
2021/09/05 11:22:05;;;;;;;5.30;3.88;;;21.60;89.90;;;;;;5078184;28;20086;-81
2021/09/05 11:24:31;;;;;;;5.72;3.30;;;21.60;89.20;;;;;;5111393;28;20039;-85
2021/09/05 11:26:58;;;;;;;4.88;3.50;;;21.80;88.30;;;;;;5095966;28;20028;-87
2021/09/05 11:29:25;;;;;;;4.47;3.00;;;21.90;85.50;;;;;;5081929;28;20035;-86
2021/09/05 11:31:50;;;;;;;7.82;3.38;;;21.90;85.00;;;;;;5104090;28;20020;-86
2021/09/05 11:34:16;;;;;;;7.28;3.40;;;21.90;84.00;;;;;;5076056;28;20078;-84
2021/09/05 11:36:44;;;;;;;4.75;3.33;;;22.00;85.30;;;;;;5095614;28;20046;-85
2021/09/05 11:39:10;;;;;;;4.25;3.28;;;22.10;86.20;;;;;;5096614;28;20476;-87
2021/09/05 11:41:35;;;;;;;6.18;3.30;;;22.20;83.00;;;;;;5095940;28;20055;-88
2021/09/05 11:44:01;;;;;;;4.75;3.40;;;22.20;83.20;;;;;;5096346;28;20028;-87
2021/09/05 11:46:27;;;;;;;4.65;2.88;;;22.30;81.90;;;;;;5113840;28;20035;-87
2021/09/05 11:48:58;;;;;;;4.55;2.90;;;22.40;80.20;;;;;;5096427;28;20439;-83
2021/09/05 11:51:24;;;;;;;4.30;3.00;;;22.40;78.80;;;;;;5095701;28;20023;-80
2021/09/05 11:53:59;;;;;;;3.55;3.00;;;22.50;78.70;;;;;;5096035;28;20055;-82
2021/09/05 11:56:26;;;;;;;4.15;3.08;;;22.50;79.60;;;;;;5113416;28;20086;-82
2021/09/05 11:58:52;;;;;;;3.22;2.92;;;22.70;78.70;;;;;;5096087;28;20027;-82
2021/09/05 12:01:17;;;;;;;3.85;2.92;;;22.70;78.50;;;;;;5083278;28;20035;-91
2021/09/05 12:03:44;;;;;;;5.75;3.10;;;22.80;76.30;;;;;;5075443;28;20114;-90
2021/09/05 12:06:11;;;;;;;4.13;3.00;;;23.00;77.90;;;;;;5075294;28;20038;-90
2021/09/05 12:08:37;;;;;;;4.40;2.90;;;23.10;76.70;;;;;;5093170;28;20434;-88
2021/09/05 12:11:05;;;;;;;3.30;2.80;;;23.30;75.00;;;;;;5093318;28;20027;-81
2021/09/05 12:13:58;;;;;;;4.57;2.60;;;23.50;74.70;;;;;;5095412;28;20024;-81
2021/09/05 12:16:27;;;;;;;3.72;2.78;;;23.60;68.30;;;;;;5095117;28;20031;-80
2021/09/05 12:19:04;;;;;;;3.75;2.85;;;23.80;68.50;;;;;;5113986;28;20027;-82
2021/09/05 12:21:35;;;;;;;4.07;2.75;;;23.90;69.00;;;;;;5095316;28;20019;-82
2021/09/05 12:24:01;;;;;;;4.40;2.70;;;24.10;67.50;;;;;;5095485;28;20020;-82
2021/09/05 12:26:26;;;;;;;5.28;2.72;;;24.30;67.10;;;;;;5094849;28;20039;-79
2021/09/05 12:29:00;;;;;;;3.63;2.50;;;24.50;66.60;;;;;;5113351;28;20047;-78
2021/09/05 12:31:45;;;;;;;5.45;2.63;;;24.60;64.30;;;;;;5094779;28;20035;-79
2021/09/05 12:34:36;;;;;;;4.97;2.60;;;24.80;64.90;;;;;;5112221;28;20044;-80
2021/09/05 12:37:10;;;;;;;5.18;2.70;;;25.00;62.50;;;;;;5075687;28;20473;-82
2021/09/05 12:39:36;;;;;;;4.65;2.70;;;25.20;61.60;;;;;;5075079;28;20465;-84
2021/09/05 12:42:10;;;;;;;3.50;2.33;;;25.40;63.20;;;;;;5075224;28;20031;-81
2021/09/05 12:44:54;;;;;;;3.65;2.38;;;25.60;64.30;;;;;;5074700;28;20122;-81
2021/09/05 12:47:34;;;;;;;4.68;2.65;;;25.80;61.90;;;;;;5081101;28;20032;-83
2021/09/05 12:50:27;;;;;;;5.10;2.42;;;25.90;58.90;;;;;;5085874;28;20023;-81
2021/09/05 12:52:52;;;;;;;3.05;2.53;;;26.10;58.10;;;;;;5085911;28;20024;-80